createdAt,value
2023-04-18T00:02:10.431Z,102893.47
2023-04-18T00:04:37.369Z,102892.50
2023-04-18T00:07:07.724Z,102894.56
2023-04-18T00:09:34.472Z,102887.06
2023-04-18T00:12:02.100Z,102890.72
2023-04-18T00:14:30.196Z,102897.09
2023-04-18T00:16:57.374Z,102897.09
2023-04-18T00:19:24.150Z,102891.19
2023-04-18T00:21:53.216Z,102894.38
2023-04-18T00:24:20.154Z,102897.09
2023-04-18T00:26:46.950Z,102894.38
2023-04-18T00:29:15.569Z,102899.50
2023-04-18T00:31:51.249Z,102893.91
2023-04-18T00:34:18.088Z,102898.69
2023-04-18T00:36:44.786Z,102891.16
2023-04-18T00:39:11.470Z,102894.53
2023-04-18T00:41:38.125Z,102897.06
2023-04-18T00:44:04.823Z,102890.34
2023-04-18T00:46:31.540Z,102899.63
2023-04-18T00:48:59.469Z,102897.53
2023-04-18T00:51:26.481Z,102897.38
2023-04-18T00:53:54.110Z,102888.56
2023-04-18T00:56:23.815Z,102888.22
2023-04-18T00:58:50.647Z,102897.81
2023-04-18T01:01:18.208Z,102891.56
2023-04-18T01:03:45.146Z,102892.44
2023-04-18T01:06:11.966Z,102894.69
2023-04-18T01:08:38.772Z,102889.28
2023-04-18T01:11:05.521Z,102892.78
2023-04-18T01:13:32.170Z,102885.56
2023-04-18T01:16:01.110Z,102887.00
2023-04-18T01:18:27.888Z,102888.09
2023-04-18T01:20:57.147Z,102888.75
2023-04-18T01:23:25.033Z,102883.31
2023-04-18T01:26:02.126Z,102881.22
2023-04-18T01:28:29.919Z,102885.69
2023-04-18T01:30:56.561Z,102873.88
2023-04-18T01:33:23.470Z,102876.56
2023-04-18T01:35:53.349Z,102879.59
2023-04-18T01:38:19.901Z,102873.97
2023-04-18T01:40:47.093Z,102867.78
2023-04-18T01:43:13.783Z,102867.91
2023-04-18T01:45:40.517Z,102864.72
2023-04-18T01:48:07.357Z,102863.25
2023-04-18T01:50:34.063Z,102867.88
2023-04-18T01:53:00.663Z,102864.38
2023-04-18T01:55:27.472Z,102865.31
2023-04-18T01:57:54.078Z,102864.47
2023-04-18T02:00:21.382Z,102868.81
2023-04-18T02:02:50.400Z,102863.53
2023-04-18T02:05:26.237Z,102860.31
2023-04-18T02:07:53.518Z,102867.63
2023-04-18T02:10:20.398Z,102867.16
2023-04-18T02:12:47.189Z,102864.28
2023-04-18T02:15:13.939Z,102869.69
2023-04-18T02:17:41.737Z,102866.00
2023-04-18T02:20:09.477Z,102868.03
2023-04-18T02:22:38.153Z,102860.72
2023-04-18T02:25:05.120Z,102857.50
2023-04-18T02:27:31.772Z,102861.63
2023-04-18T02:29:58.327Z,102864.16
2023-04-18T02:32:25.025Z,102859.03
2023-04-18T02:34:51.691Z,102863.38
2023-04-18T02:37:18.287Z,102858.69
2023-04-18T02:39:44.890Z,102860.88
2023-04-18T02:42:11.611Z,102871.22
2023-04-18T02:44:38.332Z,102865.03
2023-04-18T02:47:07.584Z,102868.16
2023-04-18T02:49:36.964Z,102868.16
2023-04-18T02:52:13.741Z,102863.66
2023-04-18T02:54:40.573Z,102867.50
2023-04-18T02:57:09.694Z,102871.47
2023-04-18T02:59:54.710Z,102865.22
2023-04-18T03:02:23.298Z,102868.50
2023-04-18T03:04:50.039Z,102872.03
2023-04-18T03:07:19.030Z,102867.22
2023-04-18T03:09:45.773Z,102866.44
2023-04-18T03:12:12.396Z,102857.81
2023-04-18T03:14:39.158Z,102861.63
2023-04-18T03:17:06.151Z,102846.00
2023-04-18T03:19:32.793Z,102852.19
2023-04-18T03:22:02.697Z,102863.84
2023-04-18T03:24:29.303Z,102859.53
2023-04-18T03:26:55.957Z,102857.94
2023-04-18T03:29:22.673Z,102860.66
2023-04-18T03:31:51.550Z,102861.22
2023-04-18T03:34:18.198Z,102864.75
2023-04-18T03:36:48.384Z,102866.66
2023-04-18T03:39:17.599Z,102875.38
2023-04-18T03:41:53.559Z,102872.31
2023-04-18T03:44:26.285Z,102873.09
2023-04-18T03:46:54.175Z,102871.31
2023-04-18T03:49:20.840Z,102871.41
2023-04-18T03:51:50.365Z,102875.72
2023-04-18T03:54:17.433Z,102873.72
2023-04-18T03:56:45.155Z,102872.41
2023-04-18T03:59:12.214Z,102872.84
2023-04-18T04:01:38.888Z,102869.84
2023-04-18T04:04:05.940Z,102874.75
2023-04-18T04:06:33.802Z,102872.16
2023-04-18T04:09:00.953Z,102882.63
2023-04-18T04:11:27.762Z,102872.34
2023-04-18T04:13:54.441Z,102875.75
2023-04-18T04:16:21.210Z,102872.41
2023-04-18T04:18:49.105Z,102870.63
2023-04-18T04:21:15.893Z,102870.44
2023-04-18T04:23:43.026Z,102873.84
2023-04-18T04:26:10.048Z,102869.22
2023-04-18T04:28:37.742Z,102876.41
2023-04-18T04:31:06.900Z,102870.09
2023-04-18T04:33:33.583Z,102873.63
2023-04-18T04:36:01.299Z,102871.59
2023-04-18T04:38:31.044Z,102877.50
2023-04-18T04:40:59.457Z,102880.31
2023-04-18T04:43:28.635Z,102878.13
2023-04-18T04:45:55.935Z,102885.22
2023-04-18T04:48:31.175Z,102876.50
2023-04-18T04:50:59.842Z,102884.03
2023-04-18T04:53:32.543Z,102895.84
2023-04-18T04:56:01.837Z,102891.63
2023-04-18T04:58:31.475Z,102898.75
2023-04-18T05:00:58.214Z,102896.06
2023-04-18T05:03:24.990Z,102895.94
2023-04-18T05:06:12.296Z,102893.22
2023-04-18T05:08:38.926Z,102895.94
2023-04-18T05:11:05.609Z,102893.72
2023-04-18T05:13:32.405Z,102888.31
2023-04-18T05:15:59.349Z,102894.53
2023-04-18T05:18:26.003Z,102896.94
2023-04-18T05:20:52.737Z,102901.44
2023-04-18T05:23:19.389Z,102897.13
2023-04-18T05:25:46.004Z,102897.81
2023-04-18T05:28:12.466Z,102897.81
2023-04-18T05:30:40.132Z,102906.72
2023-04-18T05:33:06.785Z,102896.41
2023-04-18T05:35:33.538Z,102906.72
2023-04-18T05:38:00.151Z,102914.03
2023-04-18T05:40:28.359Z,102907.53
2023-04-18T05:42:56.069Z,102908.50
2023-04-18T05:45:22.702Z,102913.03
2023-04-18T05:47:49.324Z,102919.13
2023-04-18T05:50:15.963Z,102922.81
2023-04-18T05:52:42.602Z,102921.91
2023-04-18T05:55:09.668Z,102923.19
2023-04-18T05:57:36.399Z,102916.19
2023-04-18T06:00:06.276Z,102917.00
2023-04-18T06:02:32.994Z,102914.47
2023-04-18T06:04:59.900Z,102916.56
2023-04-18T06:07:26.622Z,102913.72
2023-04-18T06:09:56.306Z,102918.66
2023-04-18T06:12:22.803Z,102926.97
2023-04-18T06:14:49.781Z,102927.34
2023-04-18T06:17:16.385Z,102927.53
2023-04-18T06:20:13.088Z,102921.78
2023-04-18T06:29:56.043Z,102938.97
2023-04-18T06:39:15.240Z,102938.25
2023-04-18T06:41:41.850Z,102936.09
2023-04-18T06:44:08.358Z,102947.47
2023-04-18T06:46:34.962Z,102948.63
2023-04-18T06:49:01.744Z,102947.06
2023-04-18T06:51:29.053Z,102941.66
2023-04-18T06:53:56.907Z,102949.66
2023-04-18T06:56:23.585Z,102947.44
2023-04-18T06:58:51.684Z,102953.94
2023-04-18T07:01:18.762Z,102955.72
2023-04-18T07:03:45.407Z,102952.25
2023-04-18T07:06:12.036Z,102951.00
2023-04-18T07:08:38.678Z,102955.31
2023-04-18T07:11:06.603Z,102962.66
2023-04-18T07:13:33.223Z,102953.09
2023-04-18T07:15:59.816Z,102962.50
2023-04-18T07:18:36.513Z,102952.94
2023-04-18T07:21:07.751Z,102949.91
2023-04-18T07:23:35.100Z,102954.41
2023-04-18T07:26:02.937Z,102960.31
2023-04-18T07:28:31.177Z,102962.72
2023-04-18T07:30:58.461Z,102959.38
2023-04-18T07:33:29.172Z,102954.44
2023-04-18T07:35:55.776Z,102948.38
2023-04-18T07:38:22.362Z,102952.06
2023-04-18T07:40:59.801Z,102953.19
2023-04-18T07:43:26.921Z,102948.69
2023-04-18T07:45:54.275Z,102951.88
2023-04-18T07:48:22.582Z,102942.66
2023-04-18T07:50:49.415Z,102947.72
2023-04-18T07:53:19.340Z,102941.97
2023-04-18T07:55:46.650Z,102939.25
2023-04-18T07:58:13.485Z,102951.88
2023-04-18T08:00:42.349Z,102948.19
2023-04-18T08:03:11.026Z,102957.44
2023-04-18T08:05:39.964Z,102959.03
2023-04-18T08:08:07.847Z,102957.72
2023-04-18T08:10:34.899Z,102943.47
2023-04-18T08:13:03.061Z,102951.28
2023-04-18T08:15:32.346Z,102955.94
2023-04-18T08:17:59.705Z,102960.88
2023-04-18T08:20:26.396Z,102957.19
2023-04-18T08:23:06.258Z,102953.97
2023-04-18T08:25:36.376Z,102960.66
2023-04-18T08:28:04.072Z,102956.69
2023-04-18T08:30:30.928Z,102955.53
2023-04-18T08:32:57.691Z,102957.59
2023-04-18T09:15:32.266Z,102964.59
2023-04-18T09:18:03.110Z,102957.06
2023-04-18T09:20:35.237Z,102955.34
2023-04-18T09:23:04.513Z,102947.31
2023-04-18T09:25:42.020Z,102954.09
2023-04-18T09:28:33.212Z,102950.13
2023-04-18T09:31:11.967Z,102956.56
2023-04-18T09:33:43.050Z,102961.72
2023-04-18T09:36:19.076Z,102957.88
2023-04-18T09:38:46.657Z,102963.56
2023-04-18T09:41:15.896Z,102963.13
2023-04-18T09:43:48.236Z,102969.69
2023-04-18T09:46:15.405Z,102954.69
2023-04-18T09:48:42.037Z,102966.06
2023-04-18T09:51:11.392Z,102951.38
2023-04-18T09:53:39.953Z,102959.31
2023-04-18T09:56:10.704Z,102945.69
2023-04-18T09:58:41.452Z,102952.72
2023-04-18T10:01:08.553Z,102949.53
2023-04-18T10:03:44.379Z,102952.25
2023-04-18T10:06:11.837Z,102954.06
2023-04-18T10:08:40.093Z,102944.84
2023-04-18T10:11:06.642Z,102954.50
2023-04-18T10:13:36.608Z,102947.91
2023-04-18T10:16:05.378Z,102954.88
2023-04-18T10:18:32.140Z,102951.38
2023-04-18T10:21:04.686Z,102948.19
2023-04-18T10:23:31.478Z,102948.06
2023-04-18T10:25:59.350Z,102939.31
2023-04-18T10:28:27.527Z,102951.84
2023-04-18T10:31:03.594Z,102943.00
2023-04-18T10:33:33.837Z,102941.41
2023-04-18T10:36:01.820Z,102943.81
2023-04-18T10:38:28.663Z,102940.03
2023-04-18T10:41:22.813Z,102949.13
2023-04-18T10:44:09.151Z,102941.63
2023-04-18T10:46:37.421Z,102936.97
2023-04-18T10:49:26.593Z,102934.34
2023-04-18T10:51:55.997Z,102925.91
2023-04-18T10:54:30.746Z,102914.19
2023-04-18T10:57:01.686Z,102913.22
2023-04-18T10:59:30.371Z,102905.03
2023-04-18T11:02:05.100Z,102912.25
2023-04-18T11:04:31.811Z,102905.28
2023-04-18T11:06:58.722Z,102905.91
2023-04-18T11:09:25.597Z,102906.53
2023-04-18T11:12:09.406Z,102909.97
2023-04-18T11:14:41.676Z,102910.88
2023-04-18T11:17:24.622Z,102903.28
2023-04-18T11:19:59.112Z,102904.69
2023-04-18T11:22:25.914Z,102911.22
2023-04-18T11:24:57.209Z,102898.31
2023-04-18T11:27:25.840Z,102905.56
2023-04-18T11:29:54.508Z,102898.66
2023-04-18T11:32:24.625Z,102899.66
2023-04-18T11:34:53.446Z,102893.38
2023-04-18T11:37:20.629Z,102893.38
2023-04-18T11:39:47.342Z,102895.44
2023-04-18T11:42:13.884Z,102894.06
2023-04-18T11:44:42.657Z,102897.41
2023-04-18T11:47:24.317Z,102896.69
2023-04-18T11:50:03.084Z,102904.00
2023-04-18T11:52:31.674Z,102901.59
2023-04-18T11:55:19.948Z,102909.44
2023-04-18T11:57:52.043Z,102904.41
2023-04-18T12:00:22.196Z,102910.00
2023-04-18T12:02:51.178Z,102908.22
2023-04-18T12:05:25.970Z,102897.09
2023-04-18T12:07:55.897Z,102907.88
2023-04-18T12:10:28.164Z,102894.81
2023-04-18T12:12:56.558Z,102902.91
2023-04-18T12:15:27.144Z,102892.84
2023-04-18T12:18:00.689Z,102897.28
2023-04-18T12:20:46.636Z,102894.63
2023-04-18T12:23:40.273Z,102898.44
2023-04-18T12:28:54.077Z,102896.03
2023-04-18T12:31:22.503Z,102896.31
2023-04-18T12:33:50.493Z,102903.16
2023-04-18T12:36:38.555Z,102888.59
2023-04-18T12:39:07.924Z,102888.16
2023-04-18T12:41:34.771Z,102891.25
2023-04-18T12:44:01.531Z,102882.34
2023-04-18T12:46:31.710Z,102883.69
2023-04-18T12:48:58.540Z,102876.78
2023-04-18T12:57:28.641Z,102885.53
2023-04-18T13:00:25.172Z,102879.84
2023-04-18T13:03:13.789Z,102892.06
2023-04-18T13:05:41.041Z,102884.38
2023-04-18T13:08:16.844Z,102885.78
2023-04-18T13:10:48.472Z,102880.56
2023-04-18T13:18:11.556Z,102880.84
2023-04-18T13:19:42.273Z,102882.22
2023-04-18T13:22:09.715Z,102883.00
2023-04-18T13:24:37.244Z,102886.13
2023-04-18T13:27:10.632Z,102888.03
2023-04-18T13:30:28.214Z,102878.00
2023-04-18T13:32:44.350Z,102875.09
2023-04-18T13:35:26.627Z,102884.63
2023-04-18T13:40:38.888Z,102877.16
2023-04-18T13:43:32.342Z,102879.53
2023-04-18T13:46:01.544Z,102878.91
2023-04-18T13:56:59.247Z,102878.91
2023-04-18T14:05:41.074Z,102871.50
2023-04-18T14:32:03.686Z,102862.66
2023-04-18T14:39:05.153Z,102854.28
2023-04-18T14:44:45.763Z,102848.34
2023-04-18T14:47:47.028Z,102843.88
2023-04-18T14:51:43.879Z,102839.41
2023-04-18T15:35:17.560Z,102832.44
2023-04-18T15:37:55.220Z,102823.22
2023-04-18T15:41:08.058Z,102822.03
2023-04-18T15:43:34.795Z,102812.38
2023-04-18T15:47:16.655Z,102819.53
2023-04-18T15:54:36.454Z,102812.75
2023-04-18T16:05:31.114Z,102808.22
2023-04-18T16:17:09.007Z,102809.06
2023-04-18T16:23:05.464Z,102814.97
2023-04-18T16:26:03.250Z,102813.47
2023-04-18T16:39:48.210Z,102809.91
2023-04-18T17:17:34.709Z,102802.28
2023-04-18T17:27:51.906Z,102802.25
2023-04-18T17:45:44.171Z,102813.38
2023-04-18T17:48:10.832Z,102813.19
2023-04-18T17:53:32.166Z,102814.94
2023-04-18T17:56:00.905Z,102810.19
2023-04-18T17:58:28.305Z,102816.34
2023-04-18T18:01:09.122Z,102812.38
2023-04-18T18:03:41.062Z,102810.38
2023-04-18T18:06:08.060Z,102816.91
2023-04-18T18:08:37.224Z,102814.06
2023-04-18T18:14:16.565Z,102817.78
2023-04-18T18:20:02.433Z,102817.84
2023-04-18T18:22:32.266Z,102817.31
2023-04-18T18:24:59.093Z,102820.66
2023-04-18T18:27:50.930Z,102820.88
2023-04-18T18:30:15.516Z,102821.44
2023-04-18T18:32:42.241Z,102822.88
2023-04-18T18:35:11.827Z,102820.63
2023-04-18T18:37:51.018Z,102825.53
2023-04-18T18:40:18.685Z,102821.47
2023-04-18T18:42:56.935Z,102827.97
2023-04-18T18:45:23.805Z,102831.75
2023-04-18T18:47:53.525Z,102839.81
2023-04-18T18:50:20.291Z,102837.34
2023-04-18T18:52:47.123Z,102842.56
2023-04-18T18:55:13.830Z,102843.59
2023-04-18T18:57:40.566Z,102844.63
2023-04-18T19:00:12.270Z,102844.53
2023-04-18T19:02:39.812Z,102844.88
2023-04-18T19:05:07.163Z,102849.09
2023-04-18T19:07:33.785Z,102848.19
2023-04-18T19:10:01.664Z,102858.97
2023-04-18T19:12:29.155Z,102861.94
2023-04-18T19:14:55.851Z,102859.44
2023-04-18T19:17:24.865Z,102863.31
2023-04-18T19:20:02.485Z,102864.78
2023-04-18T19:22:29.999Z,102870.59
